Time;durP1;ratioP1;P1;durP2;ratioP2;P2;SDS_P1;SDS_P2;PMS_P1;PMS_P2;Temp;Humidity;BMP_temperature;BMP_pressure;BME280_temperature;BME280_humidity;BME280_pressure;Samples;Min_cycle;Max_cycle;Signal;HPM_P1;HPM_P2
2022/05/22 00:02:12;;;;;;;1.27;1.17;;;11.70;99.90;;;;;;5019541;28;20112;-67
2022/05/22 00:04:39;;;;;;;0.47;0.47;;;11.70;99.90;;;;;;5023270;28;20049;-67
2022/05/22 00:07:05;;;;;;;0.20;0.20;;;11.60;99.90;;;;;;5011415;28;20134;-68
2022/05/22 00:09:31;;;;;;;0.38;0.38;;;11.50;99.90;;;;;;5022708;28;20545;-67
2022/05/22 00:11:58;;;;;;;1.38;1.27;;;11.50;99.90;;;;;;5016169;28;20125;-68
2022/05/22 00:14:25;;;;;;;1.10;1.05;;;11.50;99.90;;;;;;5021628;28;20625;-67
2022/05/22 00:16:51;;;;;;;0.43;0.43;;;11.60;99.90;;;;;;5021670;28;20418;-67
2022/05/22 00:19:19;;;;;;;0.13;0.13;;;11.60;99.90;;;;;;5020995;28;20536;-67
2022/05/22 00:21:44;;;;;;;0.57;0.40;;;11.60;99.90;;;;;;5019435;28;20054;-67
2022/05/22 00:24:11;;;;;;;0.52;0.40;;;11.60;99.90;;;;;;5014353;28;20078;-67
2022/05/22 00:26:38;;;;;;;3.63;0.90;;;11.50;99.90;;;;;;5025543;28;20076;-68
2022/05/22 00:29:04;;;;;;;0.17;0.17;;;11.50;99.90;;;;;;5025086;28;20047;-67
2022/05/22 00:31:30;;;;;;;1.38;0.68;;;11.40;99.90;;;;;;5018373;28;20038;-68
2022/05/22 00:33:55;;;;;;;0.20;0.20;;;11.40;99.90;;;;;;5022564;28;20048;-68
2022/05/22 00:36:21;;;;;;;0.13;0.13;;;11.40;99.90;;;;;;5026737;28;20073;-67
2022/05/22 00:38:46;;;;;;;5.55;1.15;;;11.40;99.90;;;;;;5030760;28;20048;-67
2022/05/22 00:41:13;;;;;;;0.25;0.25;;;11.50;99.90;;;;;;5023385;28;20041;-67
2022/05/22 00:43:41;;;;;;;0.95;0.85;;;11.50;99.90;;;;;;5029081;28;20777;-67
2022/05/22 00:46:11;;;;;;;0.52;0.52;;;11.50;99.90;;;;;;5031517;28;20133;-67
2022/05/22 00:48:38;;;;;;;0.15;0.15;;;11.50;99.90;;;;;;5022572;28;20482;-67
2022/05/22 00:51:11;;;;;;;0.17;0.17;;;11.50;99.90;;;;;;5019892;28;20077;-67
2022/05/22 00:53:45;;;;;;;0.10;0.10;;;11.50;99.90;;;;;;5028389;28;20061;-68
2022/05/22 00:56:16;;;;;;;0.10;0.10;;;11.40;99.90;;;;;;5023093;28;20080;-68
2022/05/22 00:58:42;;;;;;;0.32;0.32;;;11.40;99.90;;;;;;5013279;28;20049;-67
2022/05/22 01:01:08;;;;;;;0.10;0.10;;;11.40;99.90;;;;;;5025119;28;20061;-68
2022/05/22 01:03:36;;;;;;;3.35;1.80;;;11.40;99.90;;;;;;5027974;28;20080;-68
2022/05/22 01:06:05;;;;;;;1.35;0.88;;;11.40;99.90;;;;;;5029057;28;20033;-68
2022/05/22 01:08:32;;;;;;;1.00;0.30;;;11.50;99.90;;;;;;5025615;28;20037;-67
2022/05/22 01:11:07;;;;;;;3.60;1.13;;;11.40;99.90;;;;;;5029094;28;20084;-68
2022/05/22 01:13:36;;;;;;;0.30;0.30;;;11.40;99.90;;;;;;5030502;28;20045;-68
2022/05/22 01:16:04;;;;;;;0.10;0.10;;;11.40;99.90;;;;;;5017038;28;20049;-68
2022/05/22 01:18:39;;;;;;;1.02;0.85;;;11.40;99.90;;;;;;5029175;28;20100;-68
2022/05/22 01:21:12;;;;;;;0.30;0.30;;;11.30;99.90;;;;;;5029514;28;20210;-69
2022/05/22 01:23:37;;;;;;;0.17;0.17;;;11.30;99.90;;;;;;5019403;28;20045;-68
2022/05/22 01:26:03;;;;;;;0.10;0.10;;;11.40;99.90;;;;;;5018160;28;20057;-68
2022/05/22 01:28:28;;;;;;;1.15;1.05;;;11.40;99.90;;;;;;5030448;28;20037;-68
2022/05/22 01:30:54;;;;;;;0.90;0.82;;;11.40;99.90;;;;;;5028708;28;20049;-68
2022/05/22 01:33:19;;;;;;;0.32;0.32;;;11.40;99.90;;;;;;5022912;28;20440;-69
2022/05/22 01:35:45;;;;;;;0.10;0.10;;;11.40;99.90;;;;;;5026015;28;20405;-68
2022/05/22 01:38:11;;;;;;;1.75;0.47;;;11.30;99.90;;;;;;5029579;28;20041;-69
2022/05/22 01:40:36;;;;;;;0.10;0.10;;;11.30;99.90;;;;;;5025109;28;20141;-68
2022/05/22 01:43:02;;;;;;;0.43;0.43;;;11.30;99.90;;;;;;5024710;28;20049;-68
2022/05/22 01:45:28;;;;;;;3.60;0.80;;;11.30;99.90;;;;;;5027802;28;20556;-68
2022/05/22 01:47:54;;;;;;;0.10;0.10;;;11.30;99.90;;;;;;5013664;28;20041;-68
2022/05/22 01:50:21;;;;;;;0.30;0.30;;;11.30;99.90;;;;;;5028628;28;20161;-68
2022/05/22 01:52:47;;;;;;;0.17;0.17;;;11.20;99.90;;;;;;5014206;28;20112;-68
2022/05/22 01:55:14;;;;;;;1.23;1.17;;;11.20;99.90;;;;;;5026603;28;20049;-68
2022/05/22 01:57:40;;;;;;;0.45;0.45;;;11.20;99.90;;;;;;5021916;28;20042;-68
2022/05/22 02:00:08;;;;;;;0.25;0.25;;;11.20;99.90;;;;;;5018045;28;20057;-68
2022/05/22 02:02:34;;;;;;;2.50;2.05;;;11.20;99.90;;;;;;5015019;28;20129;-68
2022/05/22 02:05:02;;;;;;;0.68;0.68;;;11.10;99.90;;;;;;5028682;28;20044;-68
2022/05/22 02:10:11;;;;;;;0.20;0.20;;;11.00;99.90;;;;;;5024805;28;20132;-68
2022/05/22 02:12:37;;;;;;;0.10;0.10;;;11.00;99.90;;;;;;5024903;28;20124;-68
2022/05/22 02:15:03;;;;;;;0.22;0.22;;;11.00;99.90;;;;;;5023784;28;20053;-68
2022/05/22 02:17:28;;;;;;;0.80;0.80;;;11.10;99.90;;;;;;5029864;28;20417;-68
2022/05/22 02:19:54;;;;;;;1.38;0.98;;;11.10;99.90;;;;;;5029169;28;20456;-68
2022/05/22 02:22:19;;;;;;;0.10;0.10;;;11.10;99.90;;;;;;5017628;28;20037;-68
2022/05/22 02:24:53;;;;;;;0.10;0.10;;;11.10;99.90;;;;;;5024315;28;20045;-68
2022/05/22 02:27:19;;;;;;;0.10;0.10;;;11.10;99.90;;;;;;5023663;28;20171;-68
2022/05/22 02:29:45;;;;;;;0.57;0.55;;;11.00;99.90;;;;;;5028016;28;20041;-68
2022/05/22 02:32:11;;;;;;;0.73;0.73;;;11.00;99.90;;;;;;5013318;28;20446;-68
2022/05/22 02:34:37;;;;;;;0.20;0.20;;;11.00;99.90;;;;;;5020124;28;20053;-68
2022/05/22 02:37:03;;;;;;;0.10;0.10;;;11.00;99.90;;;;;;5027726;28;20351;-68
2022/05/22 02:39:30;;;;;;;1.70;0.77;;;11.00;99.90;;;;;;5028029;28;20064;-68
2022/05/22 02:42:04;;;;;;;6.22;1.42;;;11.00;99.90;;;;;;5011188;28;20523;-68
2022/05/22 02:44:30;;;;;;;0.10;0.10;;;10.90;99.90;;;;;;5021501;28;20374;-68
2022/05/22 02:46:55;;;;;;;0.28;0.28;;;10.90;99.90;;;;;;5017603;28;20068;-68
2022/05/22 02:49:21;;;;;;;0.10;0.10;;;11.00;99.90;;;;;;5025411;28;20041;-69
2022/05/22 02:51:46;;;;;;;0.32;0.32;;;11.00;99.90;;;;;;5027542;28;20409;-68
2022/05/22 02:54:12;;;;;;;0.10;0.10;;;10.90;99.90;;;;;;5025048;28;20555;-68
2022/05/22 02:56:38;;;;;;;1.15;1.08;;;10.90;99.90;;;;;;5028701;28;20056;-68
2022/05/22 02:59:03;;;;;;;0.38;0.38;;;10.90;99.90;;;;;;5027005;28;20049;-68
2022/05/22 03:01:29;;;;;;;0.15;0.15;;;10.90;99.90;;;;;;5013259;28;20064;-68
2022/05/22 03:03:54;;;;;;;0.17;0.17;;;11.00;99.90;;;;;;5025182;28;20041;-68
2022/05/22 03:06:38;;;;;;;0.10;0.10;;;10.90;99.90;;;;;;5015565;28;20066;-68
2022/05/22 03:09:05;;;;;;;;;;;10.90;99.90;;;;;;5022441;28;20152;-68
2022/05/22 03:11:30;;;;;;;0.03;0.03;;;10.90;99.90;;;;;;5028336;28;19927;-68
2022/05/22 03:13:56;;;;;;;0.17;0.17;;;10.90;99.90;;;;;;5012486;28;20045;-68
2022/05/22 03:16:21;;;;;;;0.15;0.15;;;11.00;99.90;;;;;;5023691;28;20056;-69
2022/05/22 03:18:47;;;;;;;0.08;0.08;;;10.90;99.90;;;;;;5020345;28;20355;-68
2022/05/22 03:21:13;;;;;;;0.17;0.17;;;10.90;99.90;;;;;;5018615;28;20053;-69
2022/05/22 03:23:39;;;;;;;0.20;0.20;;;11.00;99.90;;;;;;5023435;28;22629;-69
2022/05/22 03:26:05;;;;;;;0.55;0.55;;;10.90;99.90;;;;;;5012938;28;20049;-69
2022/05/22 03:28:30;;;;;;;0.30;0.30;;;10.90;99.90;;;;;;5026202;28;20049;-69
2022/05/22 03:30:56;;;;;;;0.20;0.20;;;10.80;99.90;;;;;;5023759;28;20081;-69
2022/05/22 03:33:22;;;;;;;0.52;0.47;;;10.80;99.90;;;;;;5016236;28;20038;-69
2022/05/22 03:35:47;;;;;;;0.10;0.10;;;10.90;99.90;;;;;;5022580;28;20060;-69
2022/05/22 03:38:13;;;;;;;0.00;0.00;;;10.80;99.90;;;;;;5028195;28;20375;-69
2022/05/22 03:40:45;;;;;;;0.10;0.10;;;10.80;99.90;;;;;;5014278;28;20124;-69
2022/05/22 03:43:12;;;;;;;0.10;0.10;;;10.80;99.90;;;;;;5017978;28;20468;-69
2022/05/22 03:45:37;;;;;;;0.10;0.10;;;10.70;99.90;;;;;;5013312;28;20137;-69
2022/05/22 03:48:03;;;;;;;0.20;0.20;;;10.70;99.90;;;;;;5015602;28;20137;-69
2022/05/22 03:50:29;;;;;;;0.35;0.35;;;10.60;99.90;;;;;;5014521;28;20088;-69
2022/05/22 03:52:56;;;;;;;0.25;0.25;;;10.70;99.90;;;;;;5013770;28;20041;-69
2022/05/22 03:55:22;;;;;;;0.05;0.05;;;10.60;99.90;;;;;;5020049;28;20101;-69
2022/05/22 03:57:48;;;;;;;0.10;0.10;;;10.70;99.90;;;;;;5015988;28;20129;-68
2022/05/22 04:00:17;;;;;;;0.10;0.10;;;10.60;99.90;;;;;;5026489;28;20049;-69
2022/05/22 04:02:43;;;;;;;10.95;1.98;;;10.70;99.90;;;;;;5022611;28;20568;-69
2022/05/22 04:05:09;;;;;;;0.10;0.10;;;10.70;99.90;;;;;;5023481;28;20053;-69
2022/05/22 04:07:40;;;;;;;0.00;0.00;;;10.80;99.90;;;;;;5026427;28;20073;-69
2022/05/22 04:10:06;;;;;;;0.10;0.10;;;10.80;99.90;;;;;;5013080;28;20110;-69
2022/05/22 04:12:33;;;;;;;0.10;0.10;;;10.70;99.90;;;;;;5019785;28;20038;-69
2022/05/22 04:14:58;;;;;;;0.03;0.03;;;10.70;99.90;;;;;;5021678;28;20096;-69
2022/05/22 04:17:24;;;;;;;0.03;0.03;;;10.70;99.90;;;;;;5026841;28;20072;-69
2022/05/22 04:19:49;;;;;;;0.00;0.00;;;10.70;99.90;;;;;;5028374;28;20465;-69
2022/05/22 04:22:15;;;;;;;0.00;0.00;;;10.80;99.90;;;;;;5026651;28;20072;-69
2022/05/22 04:27:25;;;;;;;0.20;0.20;;;10.90;99.90;;;;;;5019130;28;20409;-69
2022/05/22 04:29:51;;;;;;;0.75;0.75;;;10.90;99.90;;;;;;5027107;28;20041;-69
2022/05/22 04:32:16;;;;;;;0.10;0.10;;;11.00;99.90;;;;;;5030334;28;20457;-69
2022/05/22 04:34:42;;;;;;;0.40;0.40;;;11.10;99.90;;;;;;5018060;28;20037;-69
2022/05/22 04:37:07;;;;;;;0.10;0.10;;;11.20;99.90;;;;;;5028471;28;20041;-69
2022/05/22 04:39:33;;;;;;;0.10;0.10;;;11.20;99.90;;;;;;5030852;28;20400;-69
2022/05/22 04:41:59;;;;;;;0.00;0.00;;;11.20;99.90;;;;;;5025774;28;20054;-69
2022/05/22 04:44:24;;;;;;;0.28;0.28;;;11.20;99.90;;;;;;5013228;28;20046;-69
2022/05/22 04:46:50;;;;;;;0.17;0.17;;;11.20;99.90;;;;;;5018106;28;20042;-69
2022/05/22 04:49:15;;;;;;;0.10;0.10;;;11.30;99.90;;;;;;5015800;28;20132;-69
2022/05/22 04:51:41;;;;;;;0.05;0.05;;;11.30;99.90;;;;;;5030763;28;20038;-69
2022/05/22 04:54:06;;;;;;;0.10;0.10;;;11.40;99.90;;;;;;5021845;28;20048;-69
2022/05/22 04:56:32;;;;;;;0.45;0.43;;;11.40;99.90;;;;;;5023407;28;20053;-69
2022/05/22 04:58:58;;;;;;;0.03;0.03;;;11.30;99.90;;;;;;5029718;28;20756;-69
2022/05/22 05:01:23;;;;;;;0.10;0.10;;;11.30;99.90;;;;;;5026072;28;20049;-69
2022/05/22 05:03:49;;;;;;;0.00;0.00;;;11.30;99.90;;;;;;5023292;28;20111;-69
2022/05/22 05:06:15;;;;;;;0.10;0.10;;;11.30;99.90;;;;;;5019961;28;20045;-69
2022/05/22 05:08:40;;;;;;;0.15;0.15;;;11.30;99.90;;;;;;5023689;28;20088;-69
2022/05/22 05:11:10;;;;;;;0.50;0.35;;;11.40;99.90;;;;;;5021248;28;20053;-69
2022/05/22 05:13:37;;;;;;;0.40;0.40;;;11.50;99.90;;;;;;5023519;28;20148;-69
2022/05/22 05:16:08;;;;;;;0.00;0.00;;;11.60;99.90;;;;;;5021265;28;20041;-69
2022/05/22 05:18:38;;;;;;;0.10;0.10;;;11.60;99.90;;;;;;5028639;28;20053;-69
2022/05/22 05:21:07;;;;;;;0.20;0.20;;;11.70;99.90;;;;;;5011895;28;20084;-69
2022/05/22 05:23:33;;;;;;;0.20;0.20;;;11.80;99.90;;;;;;5019842;28;20499;-69
2022/05/22 05:25:59;;;;;;;3.78;1.35;;;11.80;99.90;;;;;;5030614;28;20041;-69
2022/05/22 05:28:25;;;;;;;0.10;0.10;;;11.80;99.90;;;;;;5025967;28;20095;-69
2022/05/22 05:30:50;;;;;;;0.10;0.10;;;11.90;99.90;;;;;;5014455;28;20057;-69
2022/05/22 05:33:16;;;;;;;0.08;0.08;;;11.90;99.90;;;;;;5009752;28;20163;-69
2022/05/22 05:35:42;;;;;;;0.10;0.10;;;12.00;99.90;;;;;;5016914;28;20041;-69
2022/05/22 05:38:08;;;;;;;5.38;2.47;;;12.10;99.90;;;;;;5022686;28;20141;-69
2022/05/22 05:40:35;;;;;;;0.00;0.00;;;12.10;99.90;;;;;;5024470;28;20178;-69
2022/05/22 05:43:00;;;;;;;1.65;0.50;;;12.20;99.90;;;;;;5029116;28;20046;-68
2022/05/22 05:45:27;;;;;;;0.00;0.00;;;12.30;99.90;;;;;;5025006;28;20073;-69
2022/05/22 05:47:53;;;;;;;0.30;0.30;;;12.30;99.90;;;;;;5023381;28;20037;-69
2022/05/22 05:50:21;;;;;;;0.10;0.10;;;12.40;99.90;;;;;;5027834;28;20080;-68
2022/05/22 05:52:49;;;;;;;0.20;0.20;;;12.50;99.90;;;;;;5029962;28;20053;-69
2022/05/22 05:55:15;;;;;;;0.10;0.10;;;12.50;99.90;;;;;;5012172;28;20049;-69
2022/05/22 05:57:40;;;;;;;0.10;0.10;;;12.60;99.90;;;;;;5027449;28;20071;-68
2022/05/22 06:00:10;;;;;;;0.10;0.10;;;12.60;99.90;;;;;;5016820;28;20046;-68
2022/05/22 06:02:35;;;;;;;0.35;0.35;;;12.70;99.90;;;;;;5015731;28;20053;-69
2022/05/22 06:05:01;;;;;;;0.00;0.00;;;12.70;99.90;;;;;;5028196;28;20103;-68
2022/05/22 06:07:26;;;;;;;0.10;0.10;;;12.80;99.90;;;;;;5022919;28;20034;-69
2022/05/22 06:09:52;;;;;;;0.10;0.10;;;12.90;99.90;;;;;;5016471;28;20042;-69
2022/05/22 06:12:18;;;;;;;0.28;0.28;;;12.90;99.90;;;;;;5029032;28;20053;-69
2022/05/22 06:14:44;;;;;;;0.40;0.40;;;13.00;99.90;;;;;;5028859;28;20057;-69
2022/05/22 06:17:09;;;;;;;0.10;0.10;;;13.00;99.90;;;;;;5020120;28;20041;-69
2022/05/22 06:19:57;;;;;;;4.55;1.15;;;13.10;99.90;;;;;;5026938;28;20034;-69
2022/05/22 06:22:24;;;;;;;0.10;0.10;;;13.20;99.90;;;;;;5024308;28;20072;-69
2022/05/22 06:24:50;;;;;;;0.00;0.00;;;13.20;99.90;;;;;;5020150;28;20050;-67
2022/05/22 06:27:16;;;;;;;0.20;0.20;;;13.30;99.90;;;;;;5024454;28;20041;-68
2022/05/22 06:29:43;;;;;;;0.20;0.20;;;13.40;99.90;;;;;;5027719;28;20036;-68
2022/05/22 06:32:11;;;;;;;0.00;0.00;;;13.50;99.90;;;;;;5015526;28;20050;-69
2022/05/22 06:34:41;;;;;;;0.20;0.20;;;13.50;99.90;;;;;;5013194;28;20042;-69
2022/05/22 06:37:12;;;;;;;0.17;0.17;;;13.60;99.90;;;;;;5021502;28;20042;-69
2022/05/22 06:39:51;;;;;;;0.00;0.00;;;13.70;99.90;;;;;;5027196;28;20493;-69
2022/05/22 06:42:28;;;;;;;1.40;1.02;;;13.70;99.90;;;;;;5026144;28;20053;-69
2022/05/22 06:45:00;;;;;;;0.10;0.10;;;13.80;99.90;;;;;;5021366;28;20042;-69
2022/05/22 06:47:28;;;;;;;0.08;0.08;;;13.90;99.90;;;;;;5016589;28;20054;-69
2022/05/22 06:49:54;;;;;;;0.10;0.10;;;13.90;99.90;;;;;;5024409;28;20092;-69
2022/05/22 06:52:20;;;;;;;0.10;0.10;;;14.00;99.90;;;;;;5026025;28;20050;-69
2022/05/22 06:54:46;;;;;;;1.55;1.45;;;14.10;99.90;;;;;;5018215;28;20071;-69
2022/05/22 06:57:16;;;;;;;0.17;0.17;;;14.10;99.90;;;;;;5027200;28;20423;-69
2022/05/22 06:59:43;;;;;;;15.52;1.35;;;14.20;99.90;;;;;;5026964;28;20034;-68
2022/05/22 07:02:08;;;;;;;0.45;0.45;;;14.20;99.90;;;;;;5026078;28;20087;-69
2022/05/22 07:04:34;;;;;;;0.45;0.40;;;14.30;99.90;;;;;;5022937;28;20073;-69
2022/05/22 07:06:59;;;;;;;0.10;0.10;;;14.30;99.90;;;;;;5024360;28;20481;-69
2022/05/22 07:09:26;;;;;;;3.13;2.30;;;14.40;99.90;;;;;;5009555;28;20053;-69
2022/05/22 07:11:54;;;;;;;0.10;0.10;;;14.40;99.90;;;;;;5012131;28;20037;-69
2022/05/22 07:14:20;;;;;;;0.20;0.20;;;14.60;99.90;;;;;;5014481;28;20592;-68
2022/05/22 07:16:46;;;;;;;0.10;0.10;;;14.60;99.90;;;;;;5015146;28;20060;-66
2022/05/22 07:19:12;;;;;;;0.10;0.10;;;14.70;99.90;;;;;;5023311;28;20041;-66
2022/05/22 07:21:44;;;;;;;1.48;1.38;;;14.70;99.90;;;;;;5018642;28;20045;-67
2022/05/22 07:24:09;;;;;;;0.28;0.28;;;14.80;99.90;;;;;;5016522;28;20038;-66
2022/05/22 07:26:36;;;;;;;0.10;0.10;;;14.80;99.90;;;;;;5025087;28;20055;-67
2022/05/22 07:29:02;;;;;;;0.10;0.10;;;14.90;99.90;;;;;;5024301;28;20161;-67
2022/05/22 07:31:29;;;;;;;0.10;0.10;;;14.90;99.90;;;;;;5015973;28;20050;-66
2022/05/22 07:33:55;;;;;;;0.00;0.00;;;15.00;99.90;;;;;;5025100;28;20071;-68
2022/05/22 07:36:21;;;;;;;0.10;0.10;;;15.00;99.90;;;;;;5019881;28;20555;-69
2022/05/22 07:38:47;;;;;;;0.57;0.57;;;15.00;99.90;;;;;;5026840;28;20052;-67
2022/05/22 07:41:14;;;;;;;1.50;0.28;;;15.10;99.90;;;;;;5023341;28;20497;-69
2022/05/22 07:43:40;;;;;;;0.20;0.20;;;15.10;99.90;;;;;;5010114;28;20081;-68
2022/05/22 07:46:07;;;;;;;0.10;0.10;;;15.20;99.90;;;;;;5022784;28;20048;-68
2022/05/22 07:48:33;;;;;;;0.20;0.20;;;15.20;99.90;;;;;;5016396;28;20050;-68
2022/05/22 07:51:03;;;;;;;0.40;0.40;;;15.30;99.90;;;;;;5010564;28;20045;-68
2022/05/22 07:53:30;;;;;;;0.63;0.63;;;15.30;99.90;;;;;;5017451;28;20042;-68
2022/05/22 07:55:55;;;;;;;0.10;0.10;;;15.40;99.90;;;;;;5014174;28;20053;-68
2022/05/22 07:58:23;;;;;;;0.10;0.10;;;15.50;99.90;;;;;;5019851;28;20054;-68
2022/05/22 08:00:50;;;;;;;0.30;0.30;;;15.50;99.90;;;;;;5011776;28;20045;-68
2022/05/22 08:03:17;;;;;;;0.10;0.10;;;15.60;99.90;;;;;;5026931;28;20081;-68
2022/05/22 08:05:43;;;;;;;0.22;0.22;;;15.70;99.90;;;;;;5012435;28;20042;-67
2022/05/22 08:08:09;;;;;;;0.10;0.10;;;15.70;99.90;;;;;;5015644;28;20061;-67
2022/05/22 08:10:37;;;;;;;0.10;0.10;;;15.80;99.90;;;;;;5017583;28;20073;-68
2022/05/22 08:13:04;;;;;;;0.10;0.10;;;15.80;99.90;;;;;;5025397;28;20068;-68
2022/05/22 08:15:32;;;;;;;0.47;0.32;;;15.90;99.90;;;;;;5026940;28;20123;-68
2022/05/22 08:17:59;;;;;;;0.10;0.10;;;15.90;99.90;;;;;;5022316;28;20517;-68
2022/05/22 08:20:26;;;;;;;0.10;0.10;;;16.00;99.90;;;;;;5014025;28;20049;-67
2022/05/22 08:22:55;;;;;;;0.35;0.35;;;16.10;99.90;;;;;;5028266;28;20128;-68
2022/05/22 08:25:22;;;;;;;0.10;0.10;;;16.10;99.90;;;;;;5025737;28;20061;-68
2022/05/22 08:27:48;;;;;;;0.17;0.17;;;16.20;99.90;;;;;;5021769;28;20041;-67
2022/05/22 08:30:16;;;;;;;1.50;1.40;;;16.30;99.90;;;;;;5022564;28;20556;-68
2022/05/22 08:32:43;;;;;;;0.10;0.10;;;16.30;99.90;;;;;;5028262;28;20081;-68
2022/05/22 08:35:11;;;;;;;1.55;1.08;;;16.30;99.90;;;;;;5024926;28;20076;-67
2022/05/22 08:37:36;;;;;;;0.00;0.00;;;16.30;99.90;;;;;;5010840;28;20119;-68
2022/05/22 08:40:04;;;;;;;0.10;0.10;;;16.40;99.90;;;;;;5022904;28;20042;-68
2022/05/22 08:42:42;;;;;;;1.45;1.08;;;16.50;99.90;;;;;;5018275;28;20477;-68
2022/05/22 08:45:17;;;;;;;0.10;0.10;;;16.60;99.90;;;;;;5021627;28;20041;-68
2022/05/22 08:47:51;;;;;;;0.50;0.50;;;16.60;99.90;;;;;;5022156;28;20049;-67
2022/05/22 08:50:17;;;;;;;0.40;0.40;;;16.70;99.90;;;;;;5015953;28;20064;-67
2022/05/22 08:52:51;;;;;;;6.93;0.47;;;16.70;99.90;;;;;;5017407;28;20041;-68
2022/05/22 08:55:20;;;;;;;1.45;0.35;;;16.70;99.90;;;;;;5018847;28;20045;-67
2022/05/22 09:00:39;;;;;;;0.10;0.10;;;16.80;99.90;;;;;;5026572;28;20076;-68
2022/05/22 09:03:24;;;;;;;0.10;0.10;;;16.90;99.90;;;;;;5019566;28;20413;-68
2022/05/22 09:05:55;;;;;;;0.10;0.10;;;16.80;99.90;;;;;;5015797;28;20501;-68
2022/05/22 09:08:36;;;;;;;0.40;0.40;;;16.90;99.90;;;;;;5014625;28;20055;-68
2022/05/22 09:11:27;;;;;;;0.10;0.10;;;17.10;99.90;;;;;;5020056;28;20042;-68
2022/05/22 09:14:14;;;;;;;0.43;0.43;;;17.20;99.90;;;;;;5026557;28;20068;-68
2022/05/22 09:16:48;;;;;;;0.22;0.22;;;17.40;99.90;;;;;;5023863;28;20186;-67
2022/05/22 09:19:42;;;;;;;0.17;0.17;;;17.30;99.90;;;;;;5013441;28;20454;-68
2022/05/22 09:22:23;;;;;;;0.00;0.00;;;17.30;99.90;;;;;;5028614;28;20060;-68
2022/05/22 09:25:10;;;;;;;0.20;0.20;;;17.40;99.90;;;;;;5018757;28;20393;-67
2022/05/22 09:28:01;;;;;;;0.08;0.08;;;17.30;99.90;;;;;;5029978;28;20150;-68
2022/05/22 09:30:40;;;;;;;0.43;0.30;;;17.20;99.90;;;;;;5020941;28;20222;-68
2022/05/22 09:33:36;;;;;;;0.03;0.03;;;17.10;99.90;;;;;;5021503;28;20135;-68
2022/05/22 09:36:31;;;;;;;0.03;0.03;;;17.10;99.90;;;;;;5025588;28;20053;-68
2022/05/22 09:39:15;;;;;;;1.35;1.27;;;17.50;99.90;;;;;;5014539;28;20053;-68
2022/05/22 09:42:08;;;;;;;0.05;0.05;;;18.10;99.90;;;;;;5022185;28;20041;-68
2022/05/22 09:45:07;;;;;;;0.20;0.15;;;18.50;99.90;;;;;;5029518;28;20053;-68
2022/05/22 09:48:00;;;;;;;0.00;0.00;;;18.80;99.90;;;;;;5026525;28;20038;-68
2022/05/22 09:50:34;;;;;;;0.10;0.10;;;19.10;99.90;;;;;;5026134;28;20065;-68
2022/05/22 09:53:05;;;;;;;;;;;19.10;99.90;;;;;;5028384;28;20068;-68
2022/05/22 09:55:50;;;;;;;2.55;0.35;;;18.90;99.90;;;;;;5016171;28;19925;-68
2022/05/22 09:58:15;;;;;;;0.22;0.22;;;18.70;99.90;;;;;;5019122;28;20108;-66
2022/05/22 10:01:13;;;;;;;0.00;0.00;;;18.50;99.90;;;;;;5012391;28;20046;-66
2022/05/22 10:04:16;;;;;;;0.05;0.05;;;18.40;99.90;;;;;;5014468;28;20855;-66
2022/05/22 10:06:58;;;;;;;0.00;0.00;;;18.60;99.90;;;;;;5026100;28;20051;-67
2022/05/22 10:10:04;;;;;;;0.00;0.00;;;18.70;99.90;;;;;;5018907;28;20348;-66
2022/05/22 10:12:50;;;;;;;1.95;1.35;;;19.10;99.90;;;;;;5022693;28;20413;-67
2022/05/22 10:15:28;;;;;;;0.10;0.10;;;19.50;99.90;;;;;;5027051;28;20044;-67
2022/05/22 10:18:24;;;;;;;0.00;0.00;;;19.80;99.90;;;;;;5017432;28;20120;-67
2022/05/22 10:21:09;;;;;;;0.28;0.28;;;20.00;99.90;;;;;;5026467;28;20064;-67
2022/05/22 10:23:59;;;;;;;0.30;0.30;;;20.00;99.90;;;;;;5021270;28;20457;-67
2022/05/22 10:26:54;;;;;;;0.52;0.52;;;19.90;99.90;;;;;;5017337;28;20043;-67
2022/05/22 10:29:30;;;;;;;0.20;0.20;;;19.80;99.90;;;;;;5022229;28;20091;-67
2022/05/22 10:32:05;;;;;;;0.00;0.00;;;19.70;99.90;;;;;;5017752;28;20151;-67
2022/05/22 10:34:41;;;;;;;0.20;0.20;;;19.70;99.90;;;;;;5027227;28;20049;-67
2022/05/22 10:37:19;;;;;;;0.68;0.68;;;19.40;99.90;;;;;;5010837;28;20469;-67
2022/05/22 10:39:44;;;;;;;0.00;0.00;;;19.10;99.90;;;;;;5010329;28;20104;-67
2022/05/22 10:45:19;;;;;;;1.00;0.93;;;18.90;99.90;;;;;;5029285;28;20060;-67
2022/05/22 10:47:44;;;;;;;1.80;0.13;;;18.70;99.90;;;;;;5030179;28;20057;-67
2022/05/22 10:50:20;;;;;;;0.00;0.00;;;18.70;99.90;;;;;;5021459;28;20485;-67
2022/05/22 10:52:46;;;;;;;0.00;0.00;;;18.90;99.90;;;;;;5010440;28;20371;-67
2022/05/22 10:55:37;;;;;;;0.30;0.30;;;19.40;99.90;;;;;;5009835;28;20046;-67
2022/05/22 10:58:15;;;;;;;0.10;0.10;;;19.70;99.90;;;;;;5010184;28;20049;-67
2022/05/22 11:00:51;;;;;;;0.00;0.00;;;20.00;99.90;;;;;;5026519;28;20068;-67
2022/05/22 11:03:17;;;;;;;0.22;0.22;;;19.90;99.90;;;;;;5029597;28;20049;-67
2022/05/22 11:05:51;;;;;;;0.00;0.00;;;20.10;99.90;;;;;;5015785;28;20379;-67
2022/05/22 11:08:25;;;;;;;0.00;0.00;;;20.20;99.90;;;;;;5014400;28;20124;-67
2022/05/22 11:10:50;;;;;;;0.00;0.00;;;20.10;99.90;;;;;;5009163;28;20124;-67
2022/05/22 11:13:26;;;;;;;0.00;0.00;;;19.90;99.90;;;;;;5016108;28;20546;-67
2022/05/22 11:15:52;;;;;;;0.00;0.00;;;20.10;99.90;;;;;;5010353;28;20397;-67
2022/05/22 11:18:26;;;;;;;0.00;0.00;;;20.40;99.90;;;;;;5009370;28;20050;-68
2022/05/22 11:20:52;;;;;;;0.00;0.00;;;20.70;99.90;;;;;;5007953;28;20133;-67
2022/05/22 11:23:44;;;;;;;0.00;0.00;;;20.80;99.90;;;;;;5012074;28;20475;-67
2022/05/22 11:26:15;;;;;;;0.00;0.00;;;21.10;99.90;;;;;;5010584;28;20057;-67
2022/05/22 11:28:54;;;;;;;0.00;0.00;;;21.30;99.90;;;;;;5015187;28;20460;-67
2022/05/22 11:31:46;;;;;;;0.22;0.22;;;21.50;99.90;;;;;;5009632;28;20070;-67
2022/05/22 11:34:25;;;;;;;0.10;0.10;;;21.60;99.90;;;;;;5010266;28;20393;-68
2022/05/22 11:37:17;;;;;;;0.00;0.00;;;21.70;99.90;;;;;;5026891;28;20052;-68
2022/05/22 11:40:07;;;;;;;0.10;0.10;;;21.90;99.90;;;;;;5027487;28;20551;-68
2022/05/22 11:42:38;;;;;;;0.00;0.00;;;22.20;99.90;;;;;;5025483;28;20496;-68
2022/05/22 11:45:34;;;;;;;0.10;0.10;;;21.90;99.90;;;;;;5008699;28;20034;-68
2022/05/22 11:48:02;;;;;;;1.95;1.20;;;22.00;99.90;;;;;;5014258;28;20049;-68
2022/05/22 11:50:51;;;;;;;0.25;0.25;;;22.00;99.90;;;;;;5023807;28;20057;-67
2022/05/22 11:53:49;;;;;;;0.10;0.10;;;22.20;99.90;;;;;;5019007;28;20029;-67
2022/05/22 11:56:32;;;;;;;0.05;0.05;;;22.30;99.90;;;;;;5023033;28;20394;-67
2022/05/22 11:59:33;;;;;;;0.20;0.20;;;22.60;99.90;;;;;;5008008;28;20049;-67
2022/05/22 12:02:25;;;;;;;0.00;0.00;;;22.40;99.90;;;;;;5025713;28;20568;-67
2022/05/22 12:05:22;;;;;;;0.10;0.10;;;22.30;98.80;;;;;;5011551;28;20046;-67
2022/05/22 12:08:12;;;;;;;0.10;0.10;;;22.30;99.50;;;;;;5013575;28;20048;-67
2022/05/22 12:10:47;;;;;;;0.65;0.65;;;22.50;98.20;;;;;;5027481;28;20092;-67
2022/05/22 12:13:33;;;;;;;0.00;0.00;;;21.70;99.30;;;;;;5011049;28;20069;-67
2022/05/22 12:16:07;;;;;;;0.85;0.22;;;22.00;99.60;;;;;;5025749;28;20617;-67
2022/05/22 12:19:03;;;;;;;0.00;0.00;;;21.80;99.90;;;;;;5021745;28;20144;-67
2022/05/22 12:21:51;;;;;;;0.10;0.10;;;22.20;99.90;;;;;;5010030;28;20816;-67
2022/05/22 12:24:40;;;;;;;0.20;0.20;;;22.10;98.70;;;;;;5020856;28;20116;-67
2022/05/22 12:27:20;;;;;;;4.05;0.65;;;22.30;97.70;;;;;;5026239;28;20128;-67
2022/05/22 12:29:55;;;;;;;0.20;0.20;;;22.40;98.70;;;;;;5026688;28;20054;-67
2022/05/22 12:32:24;;;;;;;0.00;0.00;;;22.60;97.00;;;;;;5018333;28;20046;-68
2022/05/22 12:34:57;;;;;;;0.00;0.00;;;22.40;98.20;;;;;;5025862;28;20038;-67
2022/05/22 12:37:30;;;;;;;0.00;0.00;;;22.70;97.60;;;;;;5021870;28;20125;-67
2022/05/22 12:40:34;;;;;;;0.00;0.00;;;23.10;97.60;;;;;;5030859;28;20201;-67
2022/05/22 12:43:04;;;;;;;0.00;0.00;;;23.30;98.70;;;;;;5025322;28;20099;-67
2022/05/22 12:45:30;;;;;;;0.65;0.45;;;23.40;97.40;;;;;;5022745;28;20485;-66
2022/05/22 12:48:12;;;;;;;0.13;0.13;;;23.60;96.70;;;;;;5022762;28;20077;-67
2022/05/22 12:51:31;;;;;;;0.00;0.00;;;23.70;96.50;;;;;;5023289;28;20128;-67
2022/05/22 12:54:11;;;;;;;0.85;0.85;;;23.60;95.40;;;;;;5022780;28;20095;-67
2022/05/22 12:56:41;;;;;;;0.00;0.00;;;23.40;94.60;;;;;;5023611;28;20041;-66
2022/05/22 12:59:22;;;;;;;0.00;0.00;;;23.10;93.40;;;;;;5019160;28;20060;-67
2022/05/22 13:01:52;;;;;;;0.25;0.25;;;23.00;94.20;;;;;;5015952;28;20053;-67
2022/05/22 13:04:36;;;;;;;0.00;0.00;;;23.10;94.70;;;;;;5026527;28;20072;-67
2022/05/22 13:07:11;;;;;;;0.00;0.00;;;23.20;95.30;;;;;;5017310;28;20049;-66
2022/05/22 13:09:46;;;;;;;0.00;0.00;;;23.40;94.40;;;;;;5016941;28;20046;-67
2022/05/22 13:12:24;;;;;;;0.10;0.10;;;23.20;94.30;;;;;;5028856;28;20465;-68
2022/05/22 13:15:00;;;;;;;0.00;0.00;;;23.00;94.70;;;;;;5025794;28;20128;-66
2022/05/22 13:17:50;;;;;;;0.00;0.00;;;23.00;94.80;;;;;;5013202;28;20065;-66
2022/05/22 13:20:37;;;;;;;0.00;0.00;;;23.20;95.00;;;;;;5010976;28;20120;-67
2022/05/22 13:23:05;;;;;;;0.10;0.10;;;23.00;96.10;;;;;;5026198;28;20049;-66